Time;durP1;ratioP1;P1;durP2;ratioP2;P2;SDS_P1;SDS_P2;PMS_P1;PMS_P2;Temp;Humidity;BMP_temperature;BMP_pressure;BME280_temperature;BME280_humidity;BME280_pressure;Samples;Min_cycle;Max_cycle;Signal;HPM_P1;HPM_P2
2022/08/20 00:01:30;;;;;;;8.23;7.43;;;;;;;;;;10491160;28;20314;-69
2022/08/20 00:06:32;;;;;;;10.07;8.20;;;;;;;;;;10496458;28;20713;-70
2022/08/20 00:11:33;;;;;;;9.95;7.95;;;;;;;;;;10463818;28;20217;-70
2022/08/20 00:16:36;;;;;;;8.63;7.82;;;;;;;;;;10494573;28;20210;-70
2022/08/20 00:21:37;;;;;;;9.57;7.80;;;;;;;;;;10442924;28;20815;-70
2022/08/20 00:26:38;;;;;;;9.60;7.88;;;;;;;;;;10491290;28;20217;-70
2022/08/20 00:31:39;;;;;;;9.55;7.72;;;;;;;;;;10481758;28;20688;-68
2022/08/20 00:36:40;;;;;;;11.73;8.52;;;;;;;;;;10482485;28;20245;-70
2022/08/20 00:41:41;;;;;;;11.82;8.48;;;;;;;;;;10459938;28;20218;-69
2022/08/20 00:46:42;;;;;;;10.73;7.45;;;;;;;;;;10490338;28;20602;-69
2022/08/20 00:51:50;;;;;;;11.38;8.77;;;;;;;;;;10498668;28;20210;-70
2022/08/20 00:57:12;;;;;;;9.50;8.15;;;;;;;;;;10500896;28;20221;-70
2022/08/20 01:02:14;;;;;;;8.98;7.78;;;;;;;;;;10500151;28;20214;-70
2022/08/20 01:07:19;;;;;;;8.45;7.50;;;;;;;;;;10501282;28;20210;-70
2022/08/20 01:12:22;;;;;;;10.27;7.97;;;;;;;;;;10503645;28;20335;-70
2022/08/20 01:17:25;;;;;;;10.02;8.15;;;;;;;;;;10502956;28;20222;-70
2022/08/20 01:27:58;;;;;;;11.18;8.43;;;;;;;;;;10458201;28;20213;-70
2022/08/20 01:33:01;;;;;;;13.20;9.18;;;;;;;;;;10490843;28;20209;-70
2022/08/20 01:38:02;;;;;;;12.02;8.95;;;;;;;;;;10491822;28;20295;-70
2022/08/20 01:43:05;;;;;;;11.55;9.02;;;;;;;;;;10491930;28;20240;-70
2022/08/20 01:48:07;;;;;;;11.25;8.50;;;;;;;;;;10491696;28;20267;-70
2022/08/20 01:53:32;;;;;;;10.30;8.23;;;;;;;;;;10492746;28;20206;-70
2022/08/20 01:58:34;;;;;;;11.77;8.43;;;;;;;;;;10501125;28;20210;-69
2022/08/20 02:03:35;;;;;;;12.18;9.30;;;;;;;;;;10499303;28;20317;-70
2022/08/20 02:08:36;;;;;;;9.27;7.85;;;;;;;;;;10496632;28;20652;-70
2022/08/20 02:13:39;;;;;;;11.18;8.57;;;;;;;;;;10496846;28;20252;-70
2022/08/20 02:18:40;;;;;;;10.02;7.78;;;;;;;;;;10497135;28;20297;-68
2022/08/20 02:23:41;;;;;;;12.10;9.18;;;;;;;;;;10489489;28;20301;-70
2022/08/20 02:28:43;;;;;;;9.45;8.05;;;;;;;;;;10492596;28;20217;-69
2022/08/20 02:33:45;;;;;;;11.52;8.15;;;;;;;;;;10489131;28;20210;-70
2022/08/20 02:38:46;;;;;;;9.98;8.23;;;;;;;;;;10493980;28;20641;-69
2022/08/20 02:43:50;;;;;;;10.80;8.23;;;;;;;;;;10491590;28;20248;-70
2022/08/20 02:48:51;;;;;;;10.48;8.55;;;;;;;;;;10488796;28;20305;-70
2022/08/20 02:53:52;;;;;;;12.07;8.45;;;;;;;;;;10493843;28;20218;-70
2022/08/20 02:58:53;;;;;;;9.57;8.32;;;;;;;;;;10501726;28;20705;-69
2022/08/20 03:03:56;;;;;;;10.95;8.55;;;;;;;;;;10457479;28;20317;-70
2022/08/20 03:08:57;;;;;;;10.85;8.40;;;;;;;;;;10480928;28;20654;-70
2022/08/20 03:13:58;;;;;;;11.57;7.90;;;;;;;;;;10485988;28;20241;-69
2022/08/20 03:18:59;;;;;;;10.15;8.10;;;;;;;;;;10472205;28;20307;-69
2022/08/20 03:24:00;;;;;;;11.57;8.38;;;;;;;;;;10485958;28;20223;-70
2022/08/20 03:29:01;;;;;;;11.80;8.55;;;;;;;;;;10456806;28;20217;-69
2022/08/20 03:34:03;;;;;;;13.10;9.88;;;;;;;;;;10491388;28;20215;-69
2022/08/20 03:39:05;;;;;;;13.00;10.70;;;;;;;;;;10462387;28;20335;-70
2022/08/20 03:44:06;;;;;;;14.38;10.38;;;;;;;;;;10469001;28;20213;-69
2022/08/20 03:49:07;;;;;;;12.80;10.23;;;;;;;;;;10478904;28;20214;-69
2022/08/20 03:54:08;;;;;;;13.05;9.85;;;;;;;;;;10473746;28;20275;-69
2022/08/20 03:59:09;;;;;;;16.60;11.00;;;;;;;;;;10464640;28;20212;-70
2022/08/20 04:04:10;;;;;;;14.07;9.73;;;;;;;;;;10482500;28;20748;-69
2022/08/20 04:09:11;;;;;;;14.30;10.20;;;;;;;;;;10434188;28;20214;-70
2022/08/20 04:14:12;;;;;;;17.17;11.05;;;;;;;;;;10442280;28;20220;-70
2022/08/20 04:19:13;;;;;;;16.77;11.00;;;;;;;;;;10475996;28;20222;-70
2022/08/20 04:24:14;;;;;;;16.33;11.60;;;;;;;;;;10490976;28;20241;-69
2022/08/20 04:29:15;;;;;;;17.67;11.35;;;;;;;;;;10496952;28;20219;-70
2022/08/20 04:34:18;;;;;;;18.30;11.02;;;;;;;;;;10500027;28;20208;-69
2022/08/20 04:39:19;;;;;;;16.73;11.32;;;;;;;;;;10499472;28;20304;-69
2022/08/20 04:44:21;;;;;;;17.98;10.52;;;;;;;;;;10499485;28;20233;-69
2022/08/20 04:49:25;;;;;;;13.60;9.48;;;;;;;;;;10447799;28;20219;-69
2022/08/20 04:54:26;;;;;;;15.30;9.43;;;;;;;;;;10498078;28;20336;-69
2022/08/20 04:59:27;;;;;;;14.68;9.57;;;;;;;;;;10444111;28;20225;-68
2022/08/20 05:04:28;;;;;;;15.10;10.05;;;;;;;;;;10463478;28;20258;-69
2022/08/20 05:09:31;;;;;;;12.30;9.50;;;;;;;;;;10495178;28;20716;-69
2022/08/20 05:14:32;;;;;;;11.48;9.35;;;;;;;;;;10463269;28;21129;-69
2022/08/20 05:19:36;;;;;;;12.10;9.65;;;;;;;;;;10496992;28;20310;-69
2022/08/20 05:24:38;;;;;;;11.15;9.00;;;;;;;;;;10474974;28;20222;-70
2022/08/20 05:29:40;;;;;;;14.98;10.52;;;;;;;;;;10489337;28;20238;-70
2022/08/20 05:34:42;;;;;;;12.57;10.57;;;;;;;;;;10491856;28;20301;-70
2022/08/20 05:39:43;;;;;;;13.38;9.63;;;;;;;;;;10484827;28;20210;-70
2022/08/20 05:44:45;;;;;;;13.90;10.52;;;;;;;;;;10503528;28;20218;-71
2022/08/20 05:49:46;;;;;;;13.07;10.43;;;;;;;;;;10503600;28;20214;-70
2022/08/20 05:54:48;;;;;;;16.45;11.13;;;;;;;;;;10429936;28;20214;-70
2022/08/20 05:59:49;;;;;;;14.15;10.77;;;;;;;;;;10437047;28;20211;-70
2022/08/20 06:04:50;;;;;;;18.95;10.60;;;;;;;;;;10474862;28;20609;-69
2022/08/20 06:09:51;;;;;;;14.60;11.10;;;;;;;;;;10472701;28;20309;-70
2022/08/20 06:14:52;;;;;;;16.23;11.63;;;;;;;;;;10490792;28;20270;-70
2022/08/20 06:19:53;;;;;;;18.45;12.88;;;;;;;;;;10487013;28;20336;-70
2022/08/20 06:24:54;;;;;;;15.45;11.70;;;;;;;;;;10485526;28;20225;-68
2022/08/20 06:29:55;;;;;;;14.10;11.77;;;;;;;;;;10406164;28;20233;-68
2022/08/20 06:34:56;;;;;;;13.63;11.10;;;;;;;;;;10446495;28;20337;-68
2022/08/20 06:40:01;;;;;;;18.75;11.48;;;;;;;;;;10476095;28;20217;-68
2022/08/20 06:45:04;;;;;;;14.05;10.32;;;;;;;;;;10488879;28;20218;-67
2022/08/20 06:50:07;;;;;;;10.68;9.57;;;;;;;;;;10489355;28;20214;-69
2022/08/20 06:55:09;;;;;;;11.48;10.02;;;;;;;;;;10492484;28;20183;-68
2022/08/20 07:00:12;;;;;;;10.32;9.27;;;;;;;;;;10457989;28;20190;-68
2022/08/20 07:05:15;;;;;;;11.50;9.15;;;;;;;;;;10449648;28;20711;-68
2022/08/20 07:10:17;;;;;;;11.15;9.98;;;;;;;;;;10491512;28;20585;-68
2022/08/20 07:15:20;;;;;;;9.60;8.60;;;;;;;;;;10496351;28;20233;-68
2022/08/20 07:20:21;;;;;;;10.35;9.18;;;;;;;;;;10496048;28;20202;-70
2022/08/20 07:25:22;;;;;;;12.02;9.20;;;;;;;;;;10473647;28;20208;-70
2022/08/20 07:35:47;;;;;;;9.65;8.80;;;;;;;;;;10495308;28;20304;-70
2022/08/20 07:40:48;;;;;;;9.85;8.82;;;;;;;;;;10466702;28;20202;-70
2022/08/20 07:45:50;;;;;;;8.60;7.80;;;;;;;;;;10498960;28;20260;-69
2022/08/20 07:50:52;;;;;;;9.18;8.27;;;;;;;;;;10466149;28;21172;-70
2022/08/20 07:55:53;;;;;;;9.93;8.55;;;;;;;;;;10497218;28;20218;-70
2022/08/20 08:00:54;;;;;;;10.55;8.93;;;;;;;;;;10494862;28;20221;-69
2022/08/20 08:05:55;;;;;;;13.27;8.98;;;;;;;;;;10495298;28;20225;-68
2022/08/20 08:10:58;;;;;;;9.00;8.10;;;;;;;;;;10493112;28;20296;-69
2022/08/20 08:16:04;;;;;;;9.20;7.80;;;;;;;;;;10495606;28;20213;-69
2022/08/20 08:21:06;;;;;;;9.07;8.18;;;;;;;;;;10499714;28;20229;-69
2022/08/20 08:26:07;;;;;;;7.72;7.10;;;;;;;;;;10492592;28;20221;-69
2022/08/20 08:31:08;;;;;;;7.85;6.47;;;;;;;;;;10497719;28;20765;-70
2022/08/20 08:36:13;;;;;;;6.22;5.63;;;;;;;;;;10494050;28;20214;-70
2022/08/20 08:41:17;;;;;;;5.53;5.13;;;;;;;;;;10495591;28;20213;-69
2022/08/20 08:46:21;;;;;;;5.07;4.68;;;;;;;;;;10493893;28;20229;-69
2022/08/20 08:51:54;;;;;;;3.65;3.55;;;;;;;;;;10496859;28;20237;-69
2022/08/20 08:56:55;;;;;;;3.60;3.47;;;;;;;;;;10477105;28;20226;-70
2022/08/20 09:01:58;;;;;;;5.22;4.28;;;;;;;;;;10485161;28;20574;-69
2022/08/20 09:07:03;;;;;;;4.35;4.15;;;;;;;;;;10446376;28;20240;-69
2022/08/20 09:12:06;;;;;;;4.43;4.13;;;;;;;;;;10457678;28;20286;-70
2022/08/20 09:17:07;;;;;;;4.28;4.00;;;;;;;;;;10470679;28;20205;-70
2022/08/20 09:22:09;;;;;;;4.38;4.18;;;;;;;;;;10494602;28;20376;-69
2022/08/20 09:27:11;;;;;;;4.57;4.28;;;;;;;;;;10497988;28;20217;-69
2022/08/20 09:32:15;;;;;;;3.58;3.38;;;;;;;;;;10466095;28;20217;-69
2022/08/20 09:37:16;;;;;;;3.50;3.30;;;;;;;;;;10482296;28;20747;-69
2022/08/20 09:42:19;;;;;;;3.88;3.67;;;;;;;;;;10496041;28;20214;-69
2022/08/20 09:47:20;;;;;;;3.83;3.65;;;;;;;;;;10491520;28;20713;-69
2022/08/20 09:52:23;;;;;;;4.10;3.90;;;;;;;;;;10498657;28;20210;-68
2022/08/20 09:57:25;;;;;;;3.75;3.65;;;;;;;;;;10467492;28;20224;-69
2022/08/20 10:02:26;;;;;;;5.40;4.32;;;;;;;;;;10498643;28;20332;-70
2022/08/20 10:07:27;;;;;;;4.03;3.83;;;;;;;;;;10496514;28;20228;-69
2022/08/20 10:12:28;;;;;;;4.50;4.30;;;;;;;;;;10465014;28;20206;-70
2022/08/20 10:17:29;;;;;;;4.15;3.95;;;;;;;;;;10495536;28;20368;-70
2022/08/20 10:22:31;;;;;;;3.55;3.45;;;;;;;;;;10494295;28;20296;-68
2022/08/20 10:27:33;;;;;;;3.58;3.45;;;;;;;;;;10481571;28;20312;-70
2022/08/20 10:32:34;;;;;;;4.60;4.20;;;;;;;;;;10496423;28;20770;-69
2022/08/20 10:37:35;;;;;;;4.43;4.13;;;;;;;;;;10491156;28;20217;-69
2022/08/20 10:42:36;;;;;;;3.80;3.70;;;;;;;;;;10487083;28;20221;-69
2022/08/20 10:47:37;;;;;;;3.90;3.55;;;;;;;;;;10491673;28;20279;-70
2022/08/20 10:52:38;;;;;;;4.05;3.85;;;;;;;;;;10478939;28;20205;-70
2022/08/20 10:57:40;;;;;;;3.55;3.45;;;;;;;;;;10493729;28;20221;-69
2022/08/20 11:02:42;;;;;;;3.30;3.20;;;;;;;;;;10461691;28;20260;-70
2022/08/20 11:07:44;;;;;;;2.90;2.90;;;;;;;;;;10491189;28;20222;-69
2022/08/20 11:12:45;;;;;;;3.30;3.20;;;;;;;;;;10491419;28;20300;-70
2022/08/20 11:17:46;;;;;;;3.97;3.67;;;;;;;;;;10491391;28;20220;-68
2022/08/20 11:22:47;;;;;;;3.33;3.22;;;;;;;;;;10470402;28;20709;-69
2022/08/20 11:27:49;;;;;;;3.30;3.20;;;;;;;;;;10472094;28;20215;-69
2022/08/20 11:32:50;;;;;;;3.33;3.08;;;;;;;;;;10457207;28;20230;-69
2022/08/20 11:37:52;;;;;;;1.95;1.95;;;;;;;;;;10466671;28;20313;-69
2022/08/20 11:42:53;;;;;;;1.90;1.90;;;;;;;;;;10459168;28;20218;-69
2022/08/20 11:47:55;;;;;;;2.50;2.38;;;;;;;;;;10458544;28;20254;-70
2022/08/20 11:52:56;;;;;;;2.47;2.42;;;;;;;;;;10473132;28;20756;-69
2022/08/20 11:57:57;;;;;;;2.60;2.40;;;;;;;;;;10472714;28;20614;-68
2022/08/20 12:02:58;;;;;;;2.50;2.45;;;;;;;;;;10462077;28;21189;-70
2022/08/20 12:08:02;;;;;;;3.28;3.08;;;;;;;;;;10448362;28;20221;-69
2022/08/20 12:13:03;;;;;;;3.33;3.17;;;;;;;;;;10492700;28;20213;-69
2022/08/20 12:18:07;;;;;;;3.75;3.65;;;;;;;;;;10490642;28;20216;-70
2022/08/20 12:23:08;;;;;;;3.38;3.28;;;;;;;;;;10435308;28;20213;-68
2022/08/20 12:28:12;;;;;;;3.05;2.95;;;;;;;;;;10479527;28;20302;-69
2022/08/20 12:33:13;;;;;;;2.83;2.72;;;;;;;;;;10495318;28;20205;-70
2022/08/20 12:38:14;;;;;;;3.28;3.17;;;;;;;;;;10491804;28;20703;-69
2022/08/20 12:43:15;;;;;;;2.53;2.42;;;;;;;;;;10492599;28;20587;-70
2022/08/20 12:48:16;;;;;;;2.90;2.72;;;;;;;;;;10490281;28;20705;-70
2022/08/20 12:53:18;;;;;;;2.30;2.30;;;;;;;;;;10491277;28;20201;-70
2022/08/20 12:58:19;;;;;;;2.58;2.58;;;;;;;;;;10488794;28;20217;-70
2022/08/20 13:03:20;;;;;;;2.75;2.65;;;;;;;;;;10496072;28;20238;-70
2022/08/20 13:08:21;;;;;;;2.55;2.42;;;;;;;;;;10495487;28;20686;-70
2022/08/20 13:13:22;;;;;;;3.03;2.83;;;;;;;;;;10493862;28;20250;-70
2022/08/20 13:18:23;;;;;;;2.58;2.38;;;;;;;;;;10491953;28;20921;-70
2022/08/20 13:23:24;;;;;;;2.03;1.95;;;;;;;;;;10492345;28;20263;-70
2022/08/20 13:28:25;;;;;;;2.55;2.45;;;;;;;;;;10490268;28;20228;-70
2022/08/20 13:33:26;;;;;;;3.30;3.10;;;;;;;;;;10499139;28;20683;-70
2022/08/20 13:38:27;;;;;;;3.75;3.55;;;;;;;;;;10491532;28;20213;-69
2022/08/20 13:43:28;;;;;;;3.42;3.22;;;;;;;;;;10493162;28;20221;-70
2022/08/20 13:48:29;;;;;;;3.67;3.53;;;;;;;;;;10422572;28;20230;-68
2022/08/20 13:53:30;;;;;;;3.90;3.60;;;;;;;;;;10469345;28;20244;-69
2022/08/20 13:58:31;;;;;;;3.65;3.55;;;;;;;;;;10487239;28;20233;-70
2022/08/20 14:03:33;;;;;;;4.10;3.90;;;;;;;;;;10494026;28;20313;-70
2022/08/20 14:08:35;;;;;;;3.80;3.60;;;;;;;;;;10490017;28;20221;-70
2022/08/20 14:13:36;;;;;;;3.35;3.25;;;;;;;;;;10462182;28;20266;-69
2022/08/20 14:18:37;;;;;;;3.40;3.28;;;;;;;;;;10487385;28;20245;-70
2022/08/20 14:23:38;;;;;;;2.70;2.63;;;;;;;;;;10491112;28;20220;-68
2022/08/20 14:28:39;;;;;;;3.28;3.13;;;;;;;;;;10488686;28;20221;-70
2022/08/20 14:33:40;;;;;;;2.83;2.72;;;;;;;;;;10492393;28;20312;-69
2022/08/20 14:38:43;;;;;;;3.45;3.15;;;;;;;;;;10487712;28;20209;-71
2022/08/20 14:43:44;;;;;;;3.13;2.92;;;;;;;;;;10460968;28;20316;-69
2022/08/20 14:48:45;;;;;;;3.63;3.33;;;;;;;;;;10491945;28;20308;-68
2022/08/20 14:53:47;;;;;;;3.15;3.05;;;;;;;;;;10484387;28;20237;-69
2022/08/20 14:58:48;;;;;;;2.25;2.20;;;;;;;;;;10484930;28;20229;-69
2022/08/20 15:03:49;;;;;;;1.50;1.50;;;;;;;;;;10476853;28;20270;-69
2022/08/20 15:08:50;;;;;;;1.60;1.60;;;;;;;;;;10444314;28;20218;-67
2022/08/20 15:13:53;;;;;;;1.25;1.25;;;;;;;;;;10444922;28;20241;-68
2022/08/20 15:18:54;;;;;;;1.25;1.10;;;;;;;;;;10446773;28;20234;-67
2022/08/20 15:23:55;;;;;;;0.60;0.60;;;;;;;;;;10443201;28;20769;-69
2022/08/20 15:28:56;;;;;;;0.50;0.50;;;;;;;;;;10443587;28;20253;-67
2022/08/20 15:33:57;;;;;;;0.38;0.38;;;;;;;;;;10430734;28;20212;-66
2022/08/20 15:38:58;;;;;;;0.40;0.40;;;;;;;;;;10446909;28;20296;-66
2022/08/20 15:43:59;;;;;;;0.40;0.40;;;;;;;;;;10446234;28;20301;-68
2022/08/20 15:49:00;;;;;;;0.40;0.40;;;;;;;;;;10444453;28;20211;-68
2022/08/20 15:54:22;;;;;;;0.50;0.50;;;;;;;;;;10442518;28;20649;-67
2022/08/20 15:59:42;;;;;;;0.50;0.50;;;;;;;;;;10446398;28;20784;-65
2022/08/20 16:05:07;;;;;;;0.50;0.50;;;;;;;;;;10439797;28;20643;-69
2022/08/20 16:10:08;;;;;;;0.60;0.60;;;;;;;;;;10465515;28;20248;-69
2022/08/20 16:15:10;;;;;;;0.55;0.55;;;;;;;;;;10496105;28;20281;-68
2022/08/20 16:20:12;;;;;;;0.50;0.50;;;;;;;;;;10501002;28;20201;-68
2022/08/20 16:25:14;;;;;;;0.80;0.80;;;;;;;;;;10502918;28;20952;-68
2022/08/20 16:30:18;;;;;;;0.50;0.50;;;;;;;;;;10511360;28;20203;-68
2022/08/20 16:35:30;;;;;;;0.80;0.60;;;;;;;;;;10490845;28;20202;-68
2022/08/20 16:40:40;;;;;;;0.50;0.50;;;;;;;;;;10507180;28;20663;-68
2022/08/20 16:45:50;;;;;;;0.38;0.38;;;;;;;;;;10507257;28;20229;-67
2022/08/20 16:50:58;;;;;;;0.40;0.40;;;;;;;;;;10499852;28;20217;-68
2022/08/20 16:55:59;;;;;;;0.50;0.50;;;;;;;;;;10499041;28;20604;-69
2022/08/20 17:01:05;;;;;;;0.40;0.40;;;;;;;;;;10505158;28;20950;-69
2022/08/20 17:06:14;;;;;;;0.38;0.38;;;;;;;;;;10485763;28;20604;-68
2022/08/20 17:11:22;;;;;;;0.30;0.30;;;;;;;;;;10505381;28;20206;-69
2022/08/20 17:16:23;;;;;;;0.20;0.20;;;;;;;;;;10500504;28;20214;-69
2022/08/20 17:21:24;;;;;;;0.40;0.40;;;;;;;;;;10503676;28;20596;-69
2022/08/20 17:26:33;;;;;;;0.40;0.40;;;;;;;;;;10485366;28;20359;-70
2022/08/20 17:31:36;;;;;;;0.40;0.40;;;;;;;;;;10465928;28;20213;-69
2022/08/20 17:36:46;;;;;;;0.30;0.30;;;;;;;;;;10482451;28;20301;-69
2022/08/20 17:41:48;;;;;;;0.30;0.30;;;;;;;;;;10493704;28;20202;-69
2022/08/20 17:46:51;;;;;;;0.30;0.30;;;;;;;;;;10492272;28;20225;-69
2022/08/20 17:51:53;;;;;;;0.20;0.20;;;;;;;;;;10500037;28;20301;-68
2022/08/20 17:56:58;;;;;;;0.10;0.10;;;;;;;;;;10491046;28;20214;-69
2022/08/20 18:02:00;;;;;;;0.10;0.10;;;;;;;;;;10490508;28;20218;-69
2022/08/20 18:07:06;;;;;;;0.20;0.20;;;;;;;;;;10495478;28;20229;-69
2022/08/20 18:12:17;;;;;;;0.20;0.20;;;;;;;;;;10492667;28;20241;-69
2022/08/20 18:17:21;;;;;;;0.10;0.10;;;;;;;;;;10487149;28;20230;-68
2022/08/20 18:22:29;;;;;;;0.13;0.13;;;;;;;;;;10490390;28;20236;-69
2022/08/20 18:27:36;;;;;;;0.20;0.20;;;;;;;;;;10457774;28;20225;-69
2022/08/20 18:32:38;;;;;;;0.20;0.20;;;;;;;;;;10465776;28;20213;-69
2022/08/20 18:37:39;;;;;;;0.20;0.20;;;;;;;;;;10464089;28;20757;-69
2022/08/20 18:42:40;;;;;;;0.20;0.20;;;;;;;;;;10486764;28;20587;-69
2022/08/20 18:47:45;;;;;;;0.15;0.15;;;;;;;;;;10461960;28;20233;-69
2022/08/20 18:52:51;;;;;;;0.20;0.20;;;;;;;;;;10492935;28;20213;-69
2022/08/20 18:57:53;;;;;;;0.20;0.20;;;;;;;;;;10488543;28;20248;-69
2022/08/20 19:03:06;;;;;;;0.15;0.15;;;;;;;;;;10484239;28;20230;-69
2022/08/20 19:08:08;;;;;;;0.20;0.20;;;;;;;;;;10398947;28;20218;-70
2022/08/20 19:13:19;;;;;;;0.20;0.20;;;;;;;;;;10421801;28;20222;-69
2022/08/20 19:18:23;;;;;;;0.30;0.30;;;;;;;;;;10452788;28;20391;-71
2022/08/20 19:23:25;;;;;;;0.25;0.25;;;;;;;;;;10454680;28;20228;-68
2022/08/20 19:28:30;;;;;;;0.30;0.30;;;;;;;;;;10449023;28;20329;-70
2022/08/20 19:33:31;;;;;;;0.30;0.30;;;;;;;;;;10452350;28;20225;-69
2022/08/20 19:38:32;;;;;;;0.20;0.20;;;;;;;;;;10434236;28;20221;-70
2022/08/20 19:43:40;;;;;;;0.30;0.30;;;;;;;;;;10450006;28;20211;-70
2022/08/20 19:48:53;;;;;;;0.20;0.20;;;;;;;;;;10447531;28;20222;-69
2022/08/20 19:53:54;;;;;;;0.30;0.30;;;;;;;;;;10451063;28;20206;-69
2022/08/20 19:59:00;;;;;;;0.20;0.20;;;;;;;;;;10452260;28;20213;-70
2022/08/20 20:04:02;;;;;;;0.25;0.25;;;;;;;;;;10439298;28;20286;-70
2022/08/20 20:09:06;;;;;;;0.30;0.30;;;;;;;;;;10491489;28;20316;-69
2022/08/20 20:14:09;;;;;;;0.20;0.20;;;;;;;;;;10495484;28;20249;-69
2022/08/20 20:19:11;;;;;;;0.30;0.30;;;;;;;;;;10493253;28;20214;-70
2022/08/20 20:24:26;;;;;;;0.10;0.10;;;;;;;;;;10493527;28;20213;-70
2022/08/20 20:29:32;;;;;;;0.22;0.22;;;;;;;;;;10465536;28;20308;-70
2022/08/20 20:34:36;;;;;;;0.30;0.30;;;;;;;;;;10491105;28;20217;-70
2022/08/20 20:39:38;;;;;;;0.22;0.22;;;;;;;;;;10492345;28;20773;-69
2022/08/20 20:44:42;;;;;;;0.30;0.30;;;;;;;;;;10494064;28;20244;-70
2022/08/20 20:49:47;;;;;;;0.40;0.40;;;;;;;;;;10491210;28;20222;-70
2022/08/20 20:54:49;;;;;;;0.40;0.40;;;;;;;;;;10463131;28;20210;-69
2022/08/20 20:59:51;;;;;;;0.50;0.50;;;;;;;;;;10475491;28;20217;-70
2022/08/20 21:04:52;;;;;;;0.50;0.50;;;;;;;;;;10498729;28;20229;-69
2022/08/20 21:09:55;;;;;;;0.40;0.40;;;;;;;;;;10502280;28;20220;-70
2022/08/20 21:14:56;;;;;;;0.40;0.40;;;;;;;;;;10498884;28;20217;-70
2022/08/20 21:19:59;;;;;;;0.60;0.60;;;;;;;;;;10502639;28;20259;-70
2022/08/20 21:25:00;;;;;;;0.65;0.65;;;;;;;;;;10482886;28;20769;-69
2022/08/20 21:30:03;;;;;;;0.40;0.40;;;;;;;;;;10502106;28;20209;-70
2022/08/20 21:35:05;;;;;;;0.68;0.60;;;;;;;;;;10503631;28;20287;-69
2022/08/20 21:40:07;;;;;;;0.60;0.60;;;;;;;;;;10496510;28;20300;-70
2022/08/20 21:45:10;;;;;;;0.60;0.60;;;;;;;;;;10498247;28;20211;-69
2022/08/20 21:50:12;;;;;;;0.50;0.50;;;;;;;;;;10479360;28;20742;-69
2022/08/20 21:55:13;;;;;;;0.50;0.50;;;;;;;;;;10497866;28;20196;-69
2022/08/20 22:00:22;;;;;;;0.50;0.50;;;;;;;;;;10500951;28;20312;-69
2022/08/20 22:05:23;;;;;;;0.60;0.60;;;;;;;;;;10500148;28;20320;-68
2022/08/20 22:10:24;;;;;;;0.47;0.47;;;;;;;;;;10502067;28;20174;-69
2022/08/20 22:15:26;;;;;;;1.40;0.95;;;;;;;;;;10495399;28;20230;-69
2022/08/20 22:20:28;;;;;;;1.08;1.00;;;;;;;;;;10504990;28;20224;-69
2022/08/20 22:25:29;;;;;;;1.00;1.00;;;;;;;;;;10495804;28;20697;-69
2022/08/20 22:30:30;;;;;;;2.15;1.40;;;;;;;;;;10494611;28;20214;-69
2022/08/20 22:35:32;;;;;;;1.00;1.00;;;;;;;;;;10481760;28;20220;-69
2022/08/20 22:40:33;;;;;;;1.00;1.00;;;;;;;;;;10495358;28;20747;-70
2022/08/20 22:45:34;;;;;;;1.15;0.88;;;;;;;;;;10498707;28;20237;-69
2022/08/20 22:50:36;;;;;;;0.93;0.93;;;;;;;;;;10494114;28;20244;-69
2022/08/20 22:55:37;;;;;;;1.50;1.00;;;;;;;;;;10478787;28;20224;-69
2022/08/20 23:00:39;;;;;;;0.77;0.77;;;;;;;;;;10465354;28;20957;-69
2022/08/20 23:05:40;;;;;;;0.75;0.75;;;;;;;;;;10500086;28;20257;-69
2022/08/20 23:10:41;;;;;;;0.77;0.77;;;;;;;;;;10498556;28;20221;-69
2022/08/20 23:15:42;;;;;;;0.50;0.50;;;;;;;;;;10495806;28;20249;-69
2022/08/20 23:20:47;;;;;;;1.20;0.40;;;;;;;;;;10494064;28;20221;-69
2022/08/20 23:25:48;;;;;;;0.40;0.40;;;;;;;;;;10494470;28;20218;-68
2022/08/20 23:30:50;;;;;;;0.50;0.50;;;;;;;;;;10481574;28;20587;-69
2022/08/20 23:35:51;;;;;;;0.38;0.38;;;;;;;;;;10495655;28;20216;-69
2022/08/20 23:40:52;;;;;;;2.30;0.50;;;;;;;;;;10493430;28;20213;-68
2022/08/20 23:45:55;;;;;;;0.45;0.45;;;;;;;;;;10497767;28;20222;-69
2022/08/20 23:50:56;;;;;;;0.32;0.32;;;;;;;;;;10495761;28;20225;-69
2022/08/20 23:55:57;;;;;;;0.88;0.50;;;;;;;;;;10490843;28;20225;-68
